createdAt,value
2018-11-04T00:01:12.406Z,68.60
2018-11-04T00:03:40.626Z,68.60
2018-11-04T00:06:08.906Z,68.70
2018-11-04T00:08:37.173Z,68.60
2018-11-04T00:11:06.045Z,68.60
2018-11-04T00:13:34.287Z,68.60
2018-11-04T00:16:02.554Z,68.50
2018-11-04T00:18:30.845Z,68.50
2018-11-04T00:20:59.048Z,68.70
2018-11-04T00:23:27.288Z,68.60
2018-11-04T00:25:55.712Z,68.60
2018-11-04T00:28:23.969Z,68.80
2018-11-04T00:30:52.242Z,69.10
2018-11-04T00:33:20.505Z,69.20
2018-11-04T00:35:48.805Z,68.90
2018-11-04T00:38:17.086Z,68.70
2018-11-04T00:40:45.354Z,68.70
2018-11-04T00:43:13.598Z,68.70
2018-11-04T00:45:41.873Z,68.70
2018-11-04T00:48:10.051Z,68.70
2018-11-04T00:50:38.238Z,68.70
2018-11-04T00:53:06.549Z,68.60
2018-11-04T00:55:34.806Z,68.60
2018-11-04T00:58:03.159Z,68.60
2018-11-04T01:00:31.432Z,68.60
2018-11-04T01:02:59.667Z,68.60
2018-11-04T01:05:27.926Z,68.60
2018-11-04T01:07:56.173Z,68.60
2018-11-04T01:10:24.433Z,68.50
2018-11-04T01:12:52.695Z,68.50
2018-11-04T01:15:20.980Z,68.70
2018-11-04T01:17:49.182Z,68.90
2018-11-04T01:20:17.565Z,68.80
2018-11-04T01:22:46.294Z,69.00
2018-11-04T01:25:14.647Z,69.00
2018-11-04T01:27:42.898Z,69.00
2018-11-04T01:30:12.895Z,69.20
2018-11-04T01:32:41.157Z,69.10
2018-11-04T01:35:09.642Z,69.10
2018-11-04T01:37:38.007Z,69.20
2018-11-04T01:40:07.113Z,69.00
2018-11-04T01:42:35.320Z,69.00
2018-11-04T01:45:03.882Z,69.00
2018-11-04T01:47:33.067Z,69.00
2018-11-04T01:50:07.714Z,68.90
2018-11-04T01:52:39.026Z,68.90
2018-11-04T01:55:07.753Z,68.80
2018-11-04T01:57:36.345Z,68.80
2018-11-04T02:00:06.906Z,68.90
2018-11-04T02:02:35.086Z,68.90
2018-11-04T02:05:04.412Z,68.90
2018-11-04T02:07:32.686Z,69.00
2018-11-04T02:10:00.895Z,69.00
2018-11-04T02:12:29.066Z,69.00
2018-11-04T02:14:57.364Z,69.10
2018-11-04T02:17:25.630Z,69.00
2018-11-04T02:19:53.892Z,69.00
2018-11-04T02:22:22.148Z,69.10
2018-11-04T02:24:50.504Z,69.00
2018-11-04T02:27:18.883Z,69.10
2018-11-04T02:29:47.755Z,69.10
2018-11-04T02:32:16.057Z,69.00
2018-11-04T02:34:44.316Z,69.20
2018-11-04T02:37:12.669Z,69.30
2018-11-04T02:39:41.001Z,69.20
2018-11-04T02:42:09.317Z,69.40
2018-11-04T02:44:37.653Z,69.40
2018-11-04T02:47:06.150Z,69.50
2018-11-04T02:49:34.354Z,69.60
2018-11-04T02:52:02.795Z,69.50
2018-11-04T02:54:31.340Z,69.40
2018-11-04T02:56:59.746Z,69.30
2018-11-04T02:59:28.056Z,69.30
2018-11-04T03:01:56.561Z,69.40
2018-11-04T03:04:24.769Z,69.50
2018-11-04T03:06:53.106Z,69.40
2018-11-04T03:09:21.850Z,69.40
2018-11-04T03:11:50.246Z,69.40
2018-11-04T03:14:19.079Z,69.50
2018-11-04T03:16:47.464Z,69.60
2018-11-04T03:19:15.716Z,69.60
2018-11-04T03:21:44.066Z,69.50
2018-11-04T03:24:12.517Z,69.60
2018-11-04T03:26:40.885Z,69.60
2018-11-04T03:29:09.323Z,69.60
2018-11-04T03:31:38.111Z,69.60
2018-11-04T03:34:06.521Z,69.70
2018-11-04T03:36:34.964Z,69.70
2018-11-04T03:39:03.971Z,69.70
2018-11-04T03:41:32.366Z,69.70
2018-11-04T03:44:00.761Z,69.80
2018-11-04T03:46:29.461Z,69.90
2018-11-04T03:48:57.931Z,69.90
2018-11-04T03:51:26.270Z,69.90
2018-11-04T03:53:54.602Z,70.00
2018-11-04T03:56:22.999Z,69.90
2018-11-04T03:58:51.369Z,70.00
2018-11-04T04:01:19.688Z,70.40
2018-11-04T04:03:48.343Z,70.40
2018-11-04T04:06:16.665Z,70.30
2018-11-04T04:08:45.126Z,70.10
2018-11-04T04:11:13.536Z,70.10
2018-11-04T04:13:41.965Z,70.10
2018-11-04T04:16:10.465Z,70.10
2018-11-04T04:18:39.605Z,70.20
2018-11-04T04:21:08.847Z,70.30
2018-11-04T04:23:38.548Z,70.50
2018-11-04T04:26:07.480Z,70.50
2018-11-04T04:28:35.953Z,70.40
2018-11-04T04:31:04.427Z,70.40
2018-11-04T04:33:32.868Z,70.40
2018-11-04T04:36:01.916Z,70.40
2018-11-04T04:38:30.247Z,70.50
2018-11-04T04:40:58.630Z,70.50
2018-11-04T04:43:26.954Z,70.50
2018-11-04T04:45:55.314Z,70.50
2018-11-04T04:48:23.636Z,70.50
2018-11-04T04:50:51.975Z,70.60
2018-11-04T04:53:23.034Z,70.80
2018-11-04T04:55:52.133Z,71.00
2018-11-04T04:58:20.574Z,70.90
2018-11-04T05:00:49.039Z,70.80
2018-11-04T05:03:17.371Z,70.70
2018-11-04T05:05:45.729Z,70.90
2018-11-04T05:08:14.068Z,70.70
2018-11-04T05:10:42.352Z,70.80
2018-11-04T05:13:10.779Z,70.80
2018-11-04T05:15:39.230Z,70.80
2018-11-04T05:18:07.900Z,70.80
2018-11-04T05:20:36.225Z,71.00
2018-11-04T05:23:04.604Z,70.90
2018-11-04T05:25:33.026Z,70.90
2018-11-04T05:28:01.308Z,70.90
2018-11-04T05:30:29.665Z,70.90
2018-11-04T05:35:36.141Z,71.00
2018-11-04T05:38:04.721Z,71.00
2018-11-04T05:40:34.014Z,71.10
2018-11-04T05:43:03.287Z,71.10
2018-11-04T05:45:31.619Z,71.20
2018-11-04T05:48:00.565Z,71.20
2018-11-04T05:50:28.944Z,71.20
2018-11-04T05:52:57.286Z,71.40
2018-11-04T05:55:25.630Z,71.30
2018-11-04T05:57:54.066Z,71.30
2018-11-04T06:00:22.449Z,71.50
2018-11-04T06:02:50.841Z,71.50
2018-11-04T06:05:20.486Z,71.50
2018-11-04T06:07:48.868Z,71.60
2018-11-04T06:10:17.191Z,71.60
2018-11-04T06:12:45.528Z,71.60
2018-11-04T06:15:13.891Z,71.70
2018-11-04T06:17:42.201Z,71.70
2018-11-04T06:20:11.877Z,71.70
2018-11-04T06:22:40.897Z,71.70
2018-11-04T06:25:09.484Z,71.70
2018-11-04T06:27:37.804Z,71.60
2018-11-04T06:30:08.151Z,71.70
2018-11-04T06:32:36.543Z,71.70
2018-11-04T06:35:05.878Z,71.70
2018-11-04T06:37:34.312Z,71.70
2018-11-04T06:40:02.716Z,71.70
2018-11-04T06:42:30.971Z,71.80
2018-11-04T06:44:59.267Z,71.80
2018-11-04T06:47:27.699Z,71.80
2018-11-04T06:49:56.040Z,71.80
2018-11-04T06:52:24.445Z,71.80
2018-11-04T06:54:52.725Z,72.00
2018-11-04T06:57:21.285Z,72.10
2018-11-04T06:59:49.827Z,72.10
2018-11-04T07:02:18.574Z,72.10
2018-11-04T07:04:46.902Z,72.20
2018-11-04T07:07:15.223Z,72.30
2018-11-04T07:09:43.708Z,72.20
2018-11-04T07:12:12.067Z,72.20
2018-11-04T07:14:40.355Z,72.30
2018-11-04T07:17:08.773Z,72.20
2018-11-04T07:19:37.157Z,72.30
2018-11-04T07:22:05.686Z,72.40
2018-11-04T07:24:34.462Z,72.40
2018-11-04T07:27:02.809Z,72.40
2018-11-04T07:29:31.299Z,72.50
2018-11-04T07:32:00.754Z,72.50
2018-11-04T07:34:29.231Z,72.70
2018-11-04T07:36:57.537Z,72.60
2018-11-04T07:39:25.998Z,72.70
2018-11-04T07:41:54.461Z,72.70
2018-11-04T07:44:22.930Z,72.70
2018-11-04T07:46:51.168Z,72.70
2018-11-04T07:49:19.944Z,72.70
2018-11-04T07:51:48.310Z,72.70
2018-11-04T07:54:16.677Z,72.80
2018-11-04T07:56:45.118Z,72.80
2018-11-04T07:59:13.438Z,72.80
2018-11-04T08:01:41.762Z,72.70
2018-11-04T08:04:10.216Z,72.80
2018-11-04T08:06:38.823Z,72.80
2018-11-04T08:09:08.534Z,72.80
2018-11-04T08:11:37.024Z,72.80
2018-11-04T08:14:05.420Z,72.80
2018-11-04T08:16:33.802Z,72.80
2018-11-04T08:19:02.457Z,72.70
2018-11-04T08:21:30.933Z,72.70
2018-11-04T08:23:59.276Z,72.70
2018-11-04T08:26:27.644Z,72.70
2018-11-04T08:28:56.083Z,72.80
2018-11-04T08:31:24.361Z,72.70
2018-11-04T08:33:53.461Z,72.80
2018-11-04T08:36:21.951Z,72.80
2018-11-04T08:38:50.821Z,72.80
2018-11-04T08:41:19.428Z,72.80
2018-11-04T08:43:47.857Z,72.80
2018-11-04T08:46:16.491Z,72.90
2018-11-04T08:48:44.817Z,73.00
2018-11-04T08:51:13.265Z,73.10
2018-11-04T08:53:41.668Z,73.20
2018-11-04T08:56:10.164Z,73.20
2018-11-04T08:58:38.773Z,73.30
2018-11-04T09:01:07.207Z,73.30
2018-11-04T09:03:35.828Z,73.30
2018-11-04T09:06:04.405Z,73.30
2018-11-04T09:08:32.807Z,73.30
2018-11-04T09:11:01.200Z,73.20
2018-11-04T09:13:29.661Z,73.20
2018-11-04T09:15:58.028Z,73.10
2018-11-04T09:18:26.438Z,73.20
2018-11-04T09:20:55.008Z,73.10
2018-11-04T09:23:23.618Z,73.20
2018-11-04T09:25:52.595Z,73.20
2018-11-04T09:28:20.940Z,73.20
2018-11-04T09:30:49.288Z,73.00
2018-11-04T09:33:18.641Z,73.00
2018-11-04T09:35:48.099Z,72.90
2018-11-04T09:38:16.335Z,73.00
2018-11-04T09:40:44.877Z,73.00
2018-11-04T09:43:13.360Z,73.00
2018-11-04T09:45:41.638Z,73.00
2018-11-04T09:48:09.960Z,73.00
2018-11-04T09:50:38.292Z,72.90
2018-11-04T09:53:06.707Z,72.90
2018-11-04T09:55:34.989Z,72.90
2018-11-04T09:58:03.426Z,72.90
2018-11-04T10:00:31.977Z,73.00
2018-11-04T10:03:02.251Z,73.00
2018-11-04T10:05:30.887Z,73.00
2018-11-04T10:07:59.205Z,72.90
2018-11-04T10:10:27.628Z,72.90
2018-11-04T10:12:56.031Z,72.90
2018-11-04T10:15:24.379Z,72.80
2018-11-04T10:17:52.736Z,72.80
2018-11-04T10:20:21.301Z,72.80
2018-11-04T10:22:49.582Z,72.80
2018-11-04T10:25:18.030Z,72.70
2018-11-04T10:27:46.755Z,72.70
2018-11-04T10:30:16.481Z,72.70
2018-11-04T10:32:45.224Z,72.70
2018-11-04T10:35:14.112Z,72.60
2018-11-04T10:37:42.922Z,72.70
2018-11-04T10:40:12.214Z,72.70
2018-11-04T10:42:42.927Z,72.70
2018-11-04T10:45:12.119Z,72.80
2018-11-04T10:47:40.489Z,72.80
2018-11-04T10:50:10.876Z,72.90
2018-11-04T10:52:39.859Z,73.00
2018-11-04T10:55:09.456Z,73.10
2018-11-04T10:57:37.890Z,73.10
2018-11-04T11:00:12.827Z,73.10
2018-11-04T11:02:44.494Z,73.10
2018-11-04T11:05:13.387Z,73.00
2018-11-04T11:07:43.101Z,73.00
2018-11-04T11:10:12.468Z,73.00
2018-11-04T11:12:41.161Z,73.00
2018-11-04T11:15:10.719Z,73.00
2018-11-04T11:17:40.010Z,73.00
2018-11-04T11:20:09.563Z,73.10
2018-11-04T11:22:38.406Z,73.00
2018-11-04T11:25:07.322Z,73.00
2018-11-04T11:27:35.589Z,73.00
2018-11-04T11:30:04.353Z,73.20
2018-11-04T11:32:32.620Z,73.20
2018-11-04T11:35:01.143Z,73.10
2018-11-04T11:37:29.460Z,73.00
2018-11-04T11:39:57.826Z,73.00
2018-11-04T11:42:26.287Z,72.90
2018-11-04T11:44:54.744Z,72.80
2018-11-04T11:47:22.956Z,72.70
2018-11-04T11:49:52.492Z,72.50
2018-11-04T11:52:20.909Z,72.50
2018-11-04T11:54:49.165Z,72.50
2018-11-04T11:57:17.484Z,72.50
2018-11-04T11:59:45.951Z,72.60
2018-11-04T12:02:14.519Z,72.50
2018-11-04T12:04:42.826Z,72.40
2018-11-04T12:07:11.280Z,72.30
2018-11-04T12:09:39.822Z,72.30
2018-11-04T12:12:08.286Z,72.30
2018-11-04T12:14:36.589Z,72.10
2018-11-04T12:17:04.992Z,72.00
2018-11-04T12:19:33.375Z,71.90
2018-11-04T12:22:01.873Z,71.90
2018-11-04T12:24:30.241Z,71.90
2018-11-04T12:26:58.746Z,71.80
2018-11-04T12:29:27.157Z,71.80
2018-11-04T12:31:55.557Z,71.50
2018-11-04T12:34:24.012Z,71.40
2018-11-04T12:36:53.100Z,71.50
2018-11-04T12:39:21.530Z,71.50
2018-11-04T12:41:49.907Z,71.50
2018-11-04T12:44:18.305Z,71.60
2018-11-04T12:46:46.709Z,71.50
2018-11-04T12:49:15.178Z,71.50
2018-11-04T12:51:43.556Z,71.40
2018-11-04T12:54:12.008Z,71.30
2018-11-04T12:56:40.327Z,71.30
2018-11-04T12:59:08.857Z,71.30
2018-11-04T13:01:37.229Z,71.30
2018-11-04T13:04:05.584Z,71.10
2018-11-04T13:06:34.527Z,71.00
2018-11-04T13:09:04.084Z,71.10
2018-11-04T13:11:32.504Z,71.10
2018-11-04T13:14:00.717Z,71.20
2018-11-04T13:16:29.078Z,71.30
2018-11-04T13:18:57.480Z,71.30
2018-11-04T13:21:25.984Z,71.50
2018-11-04T13:23:54.552Z,71.40
2018-11-04T13:26:22.931Z,71.30
2018-11-04T13:28:51.551Z,71.40
2018-11-04T13:31:20.460Z,71.40
2018-11-04T13:33:49.392Z,71.40
2018-11-04T13:36:17.766Z,71.40
2018-11-04T13:38:46.220Z,71.30
2018-11-04T13:41:14.608Z,71.30
2018-11-04T13:43:43.034Z,71.20
2018-11-04T13:46:11.801Z,71.20
2018-11-04T13:48:40.762Z,71.20
2018-11-04T13:51:09.711Z,71.20
2018-11-04T13:53:38.053Z,71.30
2018-11-04T13:56:06.350Z,71.30
2018-11-04T13:58:34.777Z,71.30
2018-11-04T14:01:04.633Z,71.50
2018-11-04T14:03:33.067Z,71.40
2018-11-04T14:06:02.108Z,71.30
2018-11-04T14:08:31.056Z,71.30
2018-11-04T14:11:01.431Z,71.40
2018-11-04T14:13:30.388Z,71.30
2018-11-04T14:15:58.732Z,71.20
2018-11-04T14:18:27.698Z,71.20
2018-11-04T14:20:56.070Z,71.00
2018-11-04T14:23:24.827Z,71.00
2018-11-04T14:25:53.317Z,71.20
2018-11-04T14:28:22.117Z,71.20
2018-11-04T14:30:51.079Z,71.20
2018-11-04T14:33:19.925Z,71.30
2018-11-04T14:35:48.683Z,71.30
2018-11-04T14:38:17.075Z,71.30
2018-11-04T14:40:45.549Z,71.30
2018-11-04T14:43:14.023Z,71.40
2018-11-04T14:45:42.585Z,71.30
2018-11-04T14:48:11.649Z,71.30
2018-11-04T14:50:40.828Z,71.30
2018-11-04T14:53:09.168Z,71.30
2018-11-04T14:55:37.765Z,71.30
2018-11-04T14:58:06.540Z,71.30
2018-11-04T15:00:35.553Z,71.30
2018-11-04T15:03:05.138Z,71.30
2018-11-04T15:05:33.618Z,71.30
2018-11-04T15:08:02.214Z,71.30
2018-11-04T15:10:30.950Z,71.30
2018-11-04T15:12:59.866Z,71.20
2018-11-04T15:15:28.295Z,71.30
2018-11-04T15:17:57.007Z,71.40
2018-11-04T15:20:25.622Z,71.40
2018-11-04T15:22:54.633Z,71.40
2018-11-04T15:25:23.125Z,71.40
2018-11-04T15:27:53.131Z,71.40
2018-11-04T15:30:22.026Z,71.40
2018-11-04T15:32:50.573Z,71.40
2018-11-04T15:35:19.338Z,71.40
2018-11-04T15:37:47.867Z,71.40
2018-11-04T15:40:17.196Z,71.40
2018-11-04T15:42:46.167Z,71.50
2018-11-04T15:45:15.725Z,71.50
2018-11-04T15:47:44.329Z,71.50
2018-11-04T15:50:15.364Z,71.50
2018-11-04T15:52:44.043Z,71.50
2018-11-04T15:55:13.556Z,71.60
2018-11-04T15:57:43.206Z,71.60
2018-11-04T16:00:15.111Z,71.60
2018-11-04T16:02:45.466Z,71.70
2018-11-04T16:05:16.636Z,71.70
2018-11-04T16:07:48.137Z,71.70
2018-11-04T16:10:21.227Z,71.80
2018-11-04T16:12:52.059Z,71.80
2018-11-04T16:15:22.318Z,71.90
2018-11-04T16:17:52.899Z,72.00
2018-11-04T16:20:22.725Z,72.00
2018-11-04T16:22:52.805Z,72.20
2018-11-04T16:25:21.976Z,72.20
2018-11-04T16:27:51.863Z,72.30
2018-11-04T16:30:21.760Z,72.30
2018-11-04T16:32:52.407Z,72.40
2018-11-04T16:35:22.838Z,72.40
2018-11-04T16:37:53.106Z,72.50
2018-11-04T16:40:23.322Z,72.50
2018-11-04T16:42:52.548Z,72.50
2018-11-04T16:45:22.190Z,72.50
2018-11-04T16:47:52.491Z,72.50
2018-11-04T16:50:22.741Z,72.40
2018-11-04T16:52:52.829Z,72.40
2018-11-04T16:55:23.012Z,72.40
2018-11-04T16:57:53.120Z,72.40
2018-11-04T17:00:22.880Z,72.40
2018-11-04T17:02:53.440Z,72.30
2018-11-04T17:05:23.585Z,72.40
2018-11-04T17:07:53.488Z,72.40
2018-11-04T17:10:23.146Z,72.40
2018-11-04T17:12:52.956Z,72.40
2018-11-04T17:15:22.384Z,72.40
2018-11-04T17:17:52.166Z,72.50
2018-11-04T17:20:23.484Z,72.50
2018-11-04T17:22:53.532Z,72.50
2018-11-04T17:25:23.505Z,72.50
2018-11-04T17:27:53.413Z,72.50
2018-11-04T17:30:23.008Z,72.60
2018-11-04T17:32:54.093Z,72.70
2018-11-04T17:35:24.134Z,72.70
2018-11-04T17:37:54.144Z,72.70
2018-11-04T17:40:23.873Z,72.70
2018-11-04T17:42:53.810Z,72.70
2018-11-04T17:45:23.433Z,72.70
2018-11-04T17:47:53.585Z,72.70
2018-11-04T17:50:23.665Z,72.60
2018-11-04T17:52:53.269Z,72.60
2018-11-04T17:55:22.950Z,72.70
2018-11-04T17:57:53.425Z,72.70
2018-11-04T18:00:28.140Z,72.70
2018-11-04T18:03:05.870Z,72.70
2018-11-04T18:05:42.890Z,72.80
2018-11-04T18:08:19.332Z,72.80
2018-11-04T18:10:48.637Z,72.80
2018-11-04T18:13:18.023Z,72.80
2018-11-04T18:15:46.798Z,72.80
2018-11-04T18:18:15.678Z,72.70
2018-11-04T18:20:44.417Z,72.70
2018-11-04T18:23:13.615Z,72.70
2018-11-04T18:25:42.252Z,72.70
2018-11-04T18:28:11.069Z,72.60
2018-11-04T18:30:41.962Z,72.60
2018-11-04T18:33:11.751Z,72.60
2018-11-04T18:35:41.828Z,72.60
2018-11-04T18:38:11.702Z,72.60
2018-11-04T18:40:41.915Z,72.60
2018-11-04T18:43:12.390Z,72.60
2018-11-04T18:45:42.833Z,72.60
2018-11-04T18:48:12.883Z,72.40
2018-11-04T18:50:42.735Z,72.50
2018-11-04T18:53:12.258Z,72.60
2018-11-04T18:55:41.728Z,72.60
2018-11-04T18:58:11.619Z,72.60
2018-11-04T19:00:41.827Z,72.60
2018-11-04T19:03:11.516Z,72.60
2018-11-04T19:05:41.796Z,72.60
2018-11-04T19:08:11.885Z,72.60
2018-11-04T19:10:41.642Z,72.60
2018-11-04T19:13:11.711Z,72.60
2018-11-04T19:15:42.366Z,72.60
2018-11-04T19:18:13.075Z,72.60
2018-11-04T19:20:42.564Z,72.60
2018-11-04T19:23:13.318Z,72.60
2018-11-04T19:25:43.485Z,72.60
2018-11-04T19:28:13.884Z,72.60
2018-11-04T19:30:43.466Z,72.60
2018-11-04T19:33:13.886Z,72.70
2018-11-04T19:35:43.805Z,72.50
2018-11-04T19:38:14.407Z,72.50
2018-11-04T19:40:44.133Z,72.50
2018-11-04T19:43:15.782Z,72.60
2018-11-04T19:45:45.533Z,72.60
2018-11-04T19:48:16.046Z,72.70
2018-11-04T19:50:45.429Z,72.60
2018-11-04T19:53:16.483Z,72.60
2018-11-04T19:55:46.105Z,72.60
2018-11-04T19:58:16.235Z,72.50
2018-11-04T20:00:46.474Z,72.60
2018-11-04T20:03:16.430Z,72.50
2018-11-04T20:05:46.567Z,72.50
2018-11-04T20:08:16.179Z,72.50
2018-11-04T20:10:45.756Z,72.40
2018-11-04T20:13:20.737Z,72.40
2018-11-04T20:15:51.498Z,72.30
2018-11-04T20:18:28.872Z,72.40
2018-11-04T20:20:59.554Z,72.40
2018-11-04T20:23:32.046Z,72.50
2018-11-04T20:26:05.791Z,72.50
2018-11-04T20:28:38.145Z,72.60
2018-11-04T20:31:10.012Z,72.70
2018-11-04T20:33:40.928Z,72.70
2018-11-04T20:36:12.532Z,72.80
2018-11-04T20:38:48.433Z,72.70
2018-11-04T20:41:23.617Z,72.60
2018-11-04T20:43:53.455Z,72.60
2018-11-04T20:46:23.578Z,72.70
2018-11-04T20:48:59.586Z,72.70
2018-11-04T20:51:29.574Z,72.60
2018-11-04T20:54:00.123Z,72.50
2018-11-04T20:56:35.412Z,72.50
2018-11-04T20:59:05.668Z,72.50
2018-11-04T21:01:35.320Z,72.50
2018-11-04T21:04:05.575Z,72.50
2018-11-04T21:06:35.705Z,72.40
2018-11-04T21:09:08.411Z,72.40
2018-11-04T21:11:38.368Z,72.50
2018-11-04T21:14:09.747Z,72.50
2018-11-04T21:16:40.375Z,72.40
2018-11-04T21:19:10.025Z,72.40
2018-11-04T21:21:39.765Z,72.40
2018-11-04T21:24:10.483Z,72.40
2018-11-04T21:26:39.866Z,72.40
2018-11-04T21:29:09.899Z,72.40
2018-11-04T21:31:38.969Z,72.40
2018-11-04T21:34:11.590Z,72.30
2018-11-04T21:36:42.053Z,72.30
2018-11-04T21:39:12.865Z,72.20
2018-11-04T21:41:42.811Z,72.40
2018-11-04T21:44:13.765Z,72.40
2018-11-04T21:46:43.549Z,72.40
2018-11-04T21:49:14.048Z,72.40
2018-11-04T21:51:43.814Z,72.40
2018-11-04T21:54:14.189Z,72.40
2018-11-04T21:56:45.452Z,72.50
2018-11-04T21:59:15.789Z,72.40
2018-11-04T22:01:46.685Z,72.50
2018-11-04T22:04:17.438Z,72.40
2018-11-04T22:06:47.776Z,72.60
2018-11-04T22:09:18.531Z,72.70
2018-11-04T22:11:48.344Z,72.60
2018-11-04T22:14:19.004Z,72.70
2018-11-04T22:16:48.453Z,72.90
2018-11-04T22:19:18.925Z,72.90
2018-11-04T22:21:49.393Z,73.00
2018-11-04T22:24:19.826Z,72.90
2018-11-04T22:26:49.473Z,72.90
2018-11-04T22:29:19.679Z,73.00
2018-11-04T22:31:49.330Z,73.00
2018-11-04T22:34:19.380Z,73.00
2018-11-04T22:36:49.654Z,73.00
2018-11-04T22:39:19.596Z,73.00
2018-11-04T22:41:49.276Z,73.00
2018-11-04T22:44:19.900Z,72.90
2018-11-04T22:46:50.007Z,72.90
2018-11-04T22:49:22.386Z,72.80
2018-11-04T22:51:52.719Z,72.80
2018-11-04T22:54:23.637Z,72.80
2018-11-04T22:56:54.519Z,72.80
2018-11-04T22:59:25.718Z,72.70
2018-11-04T23:01:56.058Z,72.70
2018-11-04T23:04:31.410Z,72.60
2018-11-04T23:07:02.397Z,72.60
2018-11-04T23:09:32.202Z,72.60
2018-11-04T23:12:02.588Z,72.60
2018-11-04T23:14:34.398Z,72.60
2018-11-04T23:17:04.667Z,72.60
2018-11-04T23:19:34.987Z,72.60
2018-11-04T23:22:04.841Z,72.50
2018-11-04T23:24:35.772Z,72.60
2018-11-04T23:27:06.038Z,72.60
2018-11-04T23:29:38.242Z,72.60
2018-11-04T23:32:08.473Z,72.60
2018-11-04T23:34:39.913Z,72.60
2018-11-04T23:37:11.145Z,72.60
2018-11-04T23:39:41.958Z,72.60
2018-11-04T23:42:13.809Z,72.70
2018-11-04T23:44:44.559Z,72.70
2018-11-04T23:47:15.930Z,72.70
2018-11-04T23:49:46.060Z,72.70
2018-11-04T23:52:16.236Z,72.80
2018-11-04T23:54:46.250Z,72.70
2018-11-04T23:57:16.405Z,72.70
2018-11-04T23:59:47.372Z,72.70
